Time;durP1;ratioP1;P1;durP2;ratioP2;P2;SDS_P1;SDS_P2;PMS_P1;PMS_P2;Temp;Humidity;BMP_temperature;BMP_pressure;BME280_temperature;BME280_humidity;BME280_pressure;Samples;Min_cycle;Max_cycle;Signal;HPM_P1;HPM_P2
2021/12/11 00:00:12;;;;;;;14.10;8.37;;;;;;;5.69;94.32;94032.06;5072501;28;20443;-82
2021/12/11 00:02:39;;;;;;;22.73;13.60;;;;;;;5.47;95.05;94038.94;5053618;28;20580;-82
2021/12/11 00:05:11;;;;;;;21.40;12.57;;;;;;;5.58;96.00;94044.16;5072575;28;20480;-82
2021/12/11 00:07:38;;;;;;;21.93;11.40;;;;;;;5.68;95.28;94035.63;5072063;28;20448;-82
2021/12/11 00:10:13;;;;;;;19.00;10.43;;;;;;;5.69;95.57;94037.28;5072202;28;20463;-82
2021/12/11 00:12:50;;;;;;;16.80;10.70;;;;;;;5.76;94.72;94043.63;5072676;28;20451;-82
2021/12/11 00:15:25;;;;;;;17.10;11.67;;;;;;;5.78;94.92;94052.16;5072102;28;20447;-82
2021/12/11 00:17:57;;;;;;;22.10;11.93;;;;;;;5.71;94.15;94048.38;5036749;28;20484;-82
2021/12/11 00:20:30;;;;;;;14.93;10.67;;;;;;;5.72;94.29;94058.66;5071858;28;20444;-82
2021/12/11 00:22:58;;;;;;;16.87;10.40;;;;;;;5.70;94.13;94075.34;5072283;28;20497;-81
2021/12/11 00:25:27;;;;;;;12.80;9.43;;;;;;;5.69;94.47;94068.50;5071895;28;20965;-81
2021/12/11 00:28:02;;;;;;;14.57;8.30;;;;;;;5.69;93.95;94073.72;5071794;28;20425;-82
2021/12/11 00:30:32;;;;;;;12.87;7.13;;;;;;;5.46;93.33;94073.72;5072143;28;20428;-82
2021/12/11 00:33:02;;;;;;;15.03;10.87;;;;;;;5.24;93.57;94071.97;5071976;28;20436;-82
2021/12/11 00:35:30;;;;;;;8.73;6.50;;;;;;;5.21;93.91;94080.03;5071737;28;20448;-81
2021/12/11 00:38:05;;;;;;;11.40;7.60;;;;;;;5.21;94.57;94074.00;5071674;28;20482;-81
2021/12/11 00:40:34;;;;;;;13.00;9.23;;;;;;;5.20;94.40;94077.50;5071809;28;20458;-82
2021/12/11 00:43:04;;;;;;;21.23;13.33;;;;;;;5.02;94.88;94074.56;5072279;28;20483;-82
2021/12/11 00:45:35;;;;;;;26.00;14.83;;;;;;;5.17;95.66;94077.75;5071896;28;20476;-82
2021/12/11 00:48:06;;;;;;;21.63;11.90;;;;;;;5.10;94.80;94084.38;5075659;28;20429;-81
2021/12/11 00:50:36;;;;;;;22.07;15.97;;;;;;;5.26;94.50;94075.28;5075830;28;20445;-81
2021/12/11 00:53:10;;;;;;;23.03;15.90;;;;;;;5.31;94.75;94059.31;5057337;28;20448;-82
2021/12/11 00:55:41;;;;;;;23.80;15.10;;;;;;;5.31;93.78;94058.50;5076073;28;20457;-82
2021/12/11 00:58:11;;;;;;;21.67;13.67;;;;;;;5.19;94.89;94040.28;5075214;28;20444;-81
2021/12/11 01:00:46;;;;;;;21.53;14.77;;;;;;;5.19;95.20;94044.66;5057267;28;20440;-82
2021/12/11 01:03:17;;;;;;;18.70;10.50;;;;;;;4.80;96.46;94031.19;5075638;28;20452;-82
2021/12/11 01:05:47;;;;;;;16.80;12.23;;;;;;;4.80;97.11;94025.16;5075355;28;20934;-82
2021/12/11 01:08:23;;;;;;;18.57;12.00;;;;;;;4.96;96.84;94043.84;5075366;28;20542;-81
2021/12/11 01:10:54;;;;;;;20.23;11.93;;;;;;;5.00;96.53;94049.63;5075566;28;20505;-82
2021/12/11 01:13:25;;;;;;;20.20;13.10;;;;;;;4.95;96.40;94045.63;5075571;28;20443;-82
2021/12/11 01:16:01;;;;;;;17.93;12.50;;;;;;;5.00;95.65;94050.47;5075105;28;20451;-82
2021/12/11 01:18:35;;;;;;;15.77;9.67;;;;;;;4.98;94.48;94044.56;5075222;28;20813;-81
2021/12/11 01:21:14;;;;;;;13.17;8.17;;;;;;;5.04;94.43;94028.47;5075197;28;20451;-82
2021/12/11 01:24:07;;;;;;;10.40;7.20;;;;;;;5.09;94.60;94044.53;5075898;28;20448;-82
2021/12/11 01:26:38;;;;;;;14.90;8.17;;;;;;;5.22;93.59;94060.03;5075288;28;20448;-82
2021/12/11 01:29:06;;;;;;;11.40;8.27;;;;;;;5.26;93.53;94048.47;5075117;28;20440;-82
2021/12/11 01:31:33;;;;;;;8.43;7.40;;;;;;;5.31;92.35;94043.72;5075180;28;20523;-81
2021/12/11 01:34:00;;;;;;;13.57;8.37;;;;;;;5.22;92.20;94047.88;5075126;28;20454;-82
2021/12/11 01:36:27;;;;;;;11.87;8.90;;;;;;;5.27;91.23;94048.34;5075213;28;20544;-82
2021/12/11 01:38:55;;;;;;;12.00;9.27;;;;;;;5.23;92.46;94038.28;5074960;28;20482;-82
2021/12/11 01:41:25;;;;;;;16.10;11.37;;;;;;;5.29;92.24;94038.63;5074873;28;20452;-81
2021/12/11 01:43:57;;;;;;;36.90;18.83;;;;;;;4.90;92.80;94028.69;5074943;28;20475;-82
2021/12/11 01:46:26;;;;;;;30.30;13.60;;;;;;;5.00;93.59;94024.47;5074999;28;20455;-82
2021/12/11 01:49:00;;;;;;;22.20;15.70;;;;;;;5.03;93.00;94018.19;5074627;28;20829;-82
2021/12/11 01:51:31;;;;;;;25.13;14.53;;;;;;;5.06;93.22;94017.97;5074657;28;20434;-82
2021/12/11 01:54:03;;;;;;;12.20;10.17;;;;;;;5.03;93.25;94021.63;5075094;28;20798;-81
2021/12/11 01:56:32;;;;;;;14.20;9.03;;;;;;;5.04;93.96;94030.25;5074510;28;20480;-82
2021/12/11 01:59:05;;;;;;;10.83;8.93;;;;;;;5.05;93.99;94024.09;5074574;28;20444;-82
2021/12/11 02:01:35;;;;;;;11.30;9.43;;;;;;;5.11;94.30;94028.81;5074312;28;20447;-82
2021/12/11 02:04:04;;;;;;;9.10;7.40;;;;;;;5.14;94.04;94026.81;5074554;28;20951;-82
2021/12/11 02:06:32;;;;;;;13.80;8.40;;;;;;;5.16;93.68;94021.50;5074377;28;20942;-81
2021/12/11 02:09:00;;;;;;;12.97;7.50;;;;;;;5.17;94.55;94010.97;5074565;28;20445;-82
2021/12/11 02:11:32;;;;;;;9.43;6.33;;;;;;;5.19;93.47;94013.44;5038801;28;20444;-82
2021/12/11 02:14:05;;;;;;;6.53;5.13;;;;;;;5.20;93.76;94009.91;5074326;28;20448;-81
2021/12/11 02:16:38;;;;;;;6.83;5.70;;;;;;;5.16;94.02;94019.72;5074543;28;20480;-81
2021/12/11 02:19:09;;;;;;;14.10;10.17;;;;;;;4.90;93.87;94020.91;5074700;28;20546;-82
2021/12/11 02:21:43;;;;;;;6.83;6.13;;;;;;;4.90;94.84;94021.72;5074019;28;20808;-82
2021/12/11 02:24:15;;;;;;;10.97;8.37;;;;;;;4.75;95.36;94016.88;5074057;28;20444;-82
2021/12/11 02:26:43;;;;;;;6.13;4.53;;;;;;;4.68;95.66;94026.91;5073995;28;20451;-82
2021/12/11 02:29:19;;;;;;;4.90;4.40;;;;;;;4.79;97.39;94031.28;5074125;28;20445;-81
2021/12/11 02:31:49;;;;;;;8.17;5.20;;;;;;;4.91;96.17;94031.16;5074149;28;20451;-81
2021/12/11 02:34:21;;;;;;;6.40;5.00;;;;;;;5.03;96.70;94032.03;5073829;28;20436;-82
2021/12/11 02:36:54;;;;;;;12.90;8.47;;;;;;;5.03;95.91;94023.41;5073608;28;20479;-82
2021/12/11 02:39:33;;;;;;;13.90;9.83;;;;;;;5.04;95.73;94012.06;5038582;28;20466;-81
2021/12/11 02:42:08;;;;;;;15.20;9.30;;;;;;;5.13;95.97;93998.31;5073785;28;20448;-81
2021/12/11 02:44:40;;;;;;;11.80;8.77;;;;;;;4.98;94.89;94013.34;5073710;28;20487;-82
2021/12/11 02:47:12;;;;;;;13.10;10.40;;;;;;;4.85;96.03;94010.84;5073354;28;20459;-82
2021/12/11 02:49:43;;;;;;;14.30;10.30;;;;;;;4.98;95.39;94011.59;5073459;28;20451;-82
2021/12/11 02:52:16;;;;;;;22.87;13.73;;;;;;;4.87;95.54;94003.75;5073639;28;20440;-82
2021/12/11 02:54:49;;;;;;;18.40;12.67;;;;;;;4.94;95.64;93991.16;5055284;28;20951;-82
2021/12/11 02:57:18;;;;;;;23.00;14.53;;;;;;;4.94;95.50;93999.78;5073437;28;20490;-82
2021/12/11 02:59:46;;;;;;;21.70;16.00;;;;;;;4.96;95.07;94018.69;5073691;28;20450;-82
2021/12/11 03:02:19;;;;;;;22.30;16.07;;;;;;;5.02;95.87;94009.56;5073341;28;20440;-82
2021/12/11 03:04:51;;;;;;;31.30;13.27;;;;;;;5.13;96.29;94008.72;5073480;28;20551;-82
2021/12/11 03:07:23;;;;;;;48.20;24.10;;;;;;;5.18;96.19;94002.22;5037576;28;20436;-82
2021/12/11 03:09:53;;;;;;;40.63;23.27;;;;;;;5.07;95.49;94004.84;5072611;28;20535;-82
2021/12/11 03:12:24;;;;;;;30.70;18.67;;;;;;;5.08;95.38;94003.88;5073083;28;20455;-82
2021/12/11 03:14:52;;;;;;;27.60;17.50;;;;;;;5.04;94.91;93994.69;5073227;28;20444;-82
2021/12/11 03:17:22;;;;;;;20.00;16.00;;;;;;;5.07;96.28;93985.81;5073093;28;20480;-82
2021/12/11 03:19:51;;;;;;;18.93;15.17;;;;;;;5.17;96.08;93990.16;5073207;28;20436;-82
2021/12/11 03:22:23;;;;;;;19.33;14.03;;;;;;;5.17;95.24;93991.94;5073572;28;20784;-82
2021/12/11 03:24:50;;;;;;;21.30;16.13;;;;;;;5.23;95.44;93988.88;5072685;28;20444;-82
2021/12/11 03:27:17;;;;;;;20.07;15.03;;;;;;;5.28;94.33;93977.16;5072752;28;20448;-82
2021/12/11 03:29:45;;;;;;;19.13;13.97;;;;;;;5.31;94.80;93976.09;5072996;28;20453;-82
2021/12/11 03:32:13;;;;;;;19.50;12.67;;;;;;;5.37;94.72;93979.97;5072960;28;20440;-82
2021/12/11 03:34:41;;;;;;;11.43;10.20;;;;;;;5.37;94.71;93973.00;5072861;28;20531;-82
2021/12/11 03:37:12;;;;;;;10.20;9.10;;;;;;;5.43;92.99;93963.88;5072630;28;20978;-82
2021/12/11 03:39:45;;;;;;;11.77;9.30;;;;;;;5.50;93.45;93968.50;5072407;28;20967;-80
2021/12/11 03:42:15;;;;;;;9.80;7.70;;;;;;;5.49;93.59;93961.63;5072730;28;20452;-82
2021/12/11 03:44:44;;;;;;;9.00;8.10;;;;;;;5.47;94.16;93957.47;5072440;28;20472;-82
2021/12/11 03:47:15;;;;;;;11.63;9.10;;;;;;;5.51;93.62;93967.53;5072511;28;20452;-81
2021/12/11 03:49:42;;;;;;;14.80;12.50;;;;;;;5.42;93.70;93965.66;5072542;28;20436;-83
2021/12/11 03:52:12;;;;;;;26.27;15.57;;;;;;;5.44;94.77;93971.56;5072234;28;20448;-82
2021/12/11 03:54:42;;;;;;;30.27;18.27;;;;;;;5.45;94.74;93977.59;5072344;28;20451;-82
2021/12/11 03:57:17;;;;;;;31.47;17.77;;;;;;;5.47;94.46;93979.13;5053868;28;20514;-83
2021/12/11 03:59:48;;;;;;;29.10;18.33;;;;;;;5.42;94.73;93977.84;5072307;28;20814;-83
2021/12/11 04:02:21;;;;;;;20.97;13.00;;;;;;;5.28;95.00;93978.94;5072807;28;20841;-83
2021/12/11 04:04:50;;;;;;;4.80;4.40;;;;;;;5.19;97.52;93982.25;5072421;28;20502;-82
2021/12/11 04:07:21;;;;;;;3.47;3.17;;;;;;;5.23;99.17;93978.47;5072516;28;20443;-83
2021/12/11 04:09:50;;;;;;;3.47;3.17;;;;;;;5.27;98.38;93985.09;5072212;28;20431;-82
2021/12/11 04:12:18;;;;;;;3.30;2.70;;;;;;;5.38;97.91;93982.47;5072465;28;20447;-82
2021/12/11 04:14:49;;;;;;;3.93;3.53;;;;;;;5.52;97.42;93982.19;5072332;28;20455;-83
2021/12/11 04:17:18;;;;;;;3.93;3.40;;;;;;;5.64;97.69;93985.59;5072011;28;21273;-83
2021/12/11 04:19:47;;;;;;;5.40;3.53;;;;;;;5.64;96.26;93984.75;5071889;28;20487;-83
2021/12/11 04:22:14;;;;;;;4.73;4.33;;;;;;;5.68;96.43;93979.19;5071999;28;20444;-83
2021/12/11 04:24:43;;;;;;;5.07;4.68;;;;;;;5.85;95.65;93975.22;5070905;28;20442;-82
2021/12/11 04:27:14;;;;;;;4.13;3.73;;;;;;;5.87;95.89;93975.94;5072011;28;20233;-82
2021/12/11 04:29:44;;;;;;;4.23;3.87;;;;;;;5.99;95.19;93974.97;5072044;28;20432;-82
2021/12/11 04:32:11;;;;;;;5.53;3.97;;;;;;;6.09;96.10;93962.84;5072043;28;20444;-83
2021/12/11 04:34:39;;;;;;;5.60;4.27;;;;;;;6.22;95.31;93957.44;5071831;28;20444;-83
2021/12/11 04:37:13;;;;;;;5.80;5.10;;;;;;;6.29;95.10;93950.75;5071918;28;20440;-82
2021/12/11 04:39:43;;;;;;;4.57;4.17;;;;;;;6.34;94.91;93940.78;5053641;28;20440;-82
2021/12/11 04:42:22;;;;;;;8.03;6.40;;;;;;;6.28;94.22;93941.31;5071641;28;20445;-82
2021/12/11 04:44:49;;;;;;;11.77;8.97;;;;;;;6.42;94.25;93947.97;5071736;28;20529;-82
2021/12/11 04:47:31;;;;;;;13.33;8.30;;;;;;;6.47;93.49;93951.84;5072005;28;20480;-83
2021/12/11 04:50:05;;;;;;;9.07;7.67;;;;;;;6.50;94.38;93953.38;5071823;28;20958;-83
2021/12/11 04:52:43;;;;;;;8.20;7.40;;;;;;;6.52;94.27;93954.06;5071796;28;20523;-83
2021/12/11 04:55:25;;;;;;;8.60;6.70;;;;;;;6.56;94.08;93950.25;5071942;28;20495;-82
2021/12/11 04:58:12;;;;;;;7.30;6.07;;;;;;;6.60;93.25;93959.44;5040187;28;20486;-82
2021/12/11 05:00:56;;;;;;;6.57;5.93;;;;;;;6.60;93.17;93959.44;5071745;28;20448;-82
2021/12/11 05:06:20;;;;;;;6.53;5.93;;;;;;;6.65;93.38;93939.06;5071875;28;20431;-82
2021/12/11 05:11:49;;;;;;;8.90;5.77;;;;;;;6.72;94.01;93934.16;5009686;28;20586;-82
2021/12/11 05:14:19;;;;;;;13.90;10.80;;;;;;;6.76;94.07;93930.31;5009603;28;20477;-82
2021/12/11 05:16:48;;;;;;;10.70;6.00;;;;;;;6.69;93.53;93922.19;5009536;28;20458;-82
2021/12/11 05:19:15;;;;;;;6.40;4.47;;;;;;;6.62;93.51;93928.88;5009483;28;21005;-82
2021/12/11 05:21:42;;;;;;;4.73;4.30;;;;;;;6.53;94.33;93934.88;5009246;28;20455;-83
2021/12/11 05:24:10;;;;;;;6.07;4.67;;;;;;;6.51;94.22;93934.16;5009529;28;20447;-83
2021/12/11 05:26:38;;;;;;;8.40;7.60;;;;;;;6.45;93.78;93935.53;5009471;28;20463;-82
2021/12/11 05:29:06;;;;;;;11.37;9.73;;;;;;;6.46;94.03;93942.38;5009279;28;20443;-82
2021/12/11 05:31:35;;;;;;;11.10;9.83;;;;;;;6.48;94.89;93945.69;5009988;28;20453;-82
2021/12/11 05:34:03;;;;;;;12.20;9.77;;;;;;;6.51;94.74;93936.78;5012875;28;20446;-83
2021/12/11 05:36:32;;;;;;;6.27;5.63;;;;;;;6.53;94.46;93927.03;5013063;28;20447;-83
2021/12/11 05:38:59;;;;;;;7.37;6.27;;;;;;;6.60;94.07;93940.38;5012850;28;20529;-82
2021/12/11 05:41:27;;;;;;;5.53;5.10;;;;;;;6.59;93.76;93926.53;5012984;28;20443;-82
2021/12/11 05:43:56;;;;;;;4.93;4.60;;;;;;;6.66;93.75;93913.81;5013044;28;20448;-83
2021/12/11 05:46:23;;;;;;;6.37;4.03;;;;;;;6.74;93.28;93922.63;5015407;28;20453;-82
2021/12/11 05:48:53;;;;;;;5.97;4.33;;;;;;;6.81;93.76;93930.75;5074632;28;20448;-81
2021/12/11 05:51:22;;;;;;;5.03;4.60;;;;;;;6.87;93.00;93937.22;5075809;28;20463;-78
2021/12/11 05:53:53;;;;;;;5.50;4.90;;;;;;;6.90;92.80;93931.72;5075769;28;20511;-77
2021/12/11 05:56:22;;;;;;;5.20;4.80;;;;;;;6.86;92.39;93939.00;5075079;28;20531;-83
2021/12/11 05:58:56;;;;;;;5.30;4.80;;;;;;;6.89;92.70;93940.50;5075558;28;20996;-83
2021/12/11 06:01:32;;;;;;;6.50;5.40;;;;;;;6.93;91.82;93941.91;5075961;28;21212;-82
2021/12/11 06:04:04;;;;;;;16.70;7.77;;;;;;;6.93;92.58;93952.31;5076132;28;20503;-83
2021/12/11 06:06:31;;;;;;;10.00;8.80;;;;;;;6.95;93.03;93950.44;5075432;28;20516;-83
2021/12/11 06:08:58;;;;;;;12.40;8.13;;;;;;;6.93;92.74;93947.94;5075473;28;20451;-83
2021/12/11 06:11:25;;;;;;;15.97;9.00;;;;;;;6.94;93.33;93959.19;5075308;28;20433;-83
2021/12/11 06:13:52;;;;;;;10.53;8.83;;;;;;;6.91;93.58;93955.06;5075819;28;20433;-83
2021/12/11 06:16:19;;;;;;;13.90;9.70;;;;;;;6.89;93.63;93956.16;5075684;28;20437;-83
2021/12/11 06:18:47;;;;;;;10.00;8.70;;;;;;;6.89;94.14;93945.72;5040153;28;20481;-83
2021/12/11 06:21:16;;;;;;;13.17;7.67;;;;;;;6.91;93.85;93947.25;5075510;28;20441;-83
2021/12/11 06:23:43;;;;;;;13.23;9.17;;;;;;;6.95;94.94;93942.63;5075188;28;20445;-83
2021/12/11 06:26:10;;;;;;;9.90;7.73;;;;;;;6.99;94.93;93938.78;5075084;28;20540;-82
2021/12/11 06:28:38;;;;;;;13.07;8.60;;;;;;;7.01;94.87;93949.91;5075686;28;20797;-82
2021/12/11 06:31:07;;;;;;;12.70;9.93;;;;;;;7.03;94.97;93950.59;5074862;28;20825;-82
2021/12/11 06:33:35;;;;;;;21.03;10.90;;;;;;;7.01;94.44;93955.13;5075533;28;20436;-82
2021/12/11 06:36:06;;;;;;;9.33;7.70;;;;;;;6.97;94.71;93956.34;5075048;28;20445;-82
2021/12/11 06:38:37;;;;;;;12.43;8.27;;;;;;;7.00;95.05;93950.88;5075265;28;20503;-82
2021/12/11 06:41:07;;;;;;;10.17;9.03;;;;;;;7.00;94.37;93953.47;5074837;28;20441;-83
2021/12/11 06:43:34;;;;;;;13.47;9.50;;;;;;;7.03;94.96;93948.00;5073961;28;20437;-83
2021/12/11 06:46:02;;;;;;;11.70;8.90;;;;;;;7.05;95.48;93952.13;5075034;28;20982;-83
2021/12/11 06:48:29;;;;;;;16.17;9.20;;;;;;;7.08;95.86;93949.25;5074940;28;20429;-83
2021/12/11 06:50:57;;;;;;;13.83;9.23;;;;;;;7.09;96.02;93950.06;5074660;28;20442;-82
2021/12/11 06:53:29;;;;;;;11.03;9.00;;;;;;;7.14;95.33;93953.09;5074744;28;20455;-82
2021/12/11 06:55:57;;;;;;;12.03;9.77;;;;;;;7.15;95.62;93946.91;5074726;28;20805;-83
2021/12/11 06:58:25;;;;;;;12.87;9.60;;;;;;;7.13;95.59;93948.84;5074571;28;20476;-82
2021/12/11 07:00:52;;;;;;;12.03;10.63;;;;;;;7.11;95.52;93942.94;5074933;28;20453;-83
2021/12/11 07:03:19;;;;;;;17.47;11.60;;;;;;;7.09;96.05;93939.63;5074930;28;20472;-82
2021/12/11 07:05:46;;;;;;;18.20;10.70;;;;;;;7.12;96.14;93949.81;5075028;28;20444;-82
2021/12/11 07:08:15;;;;;;;12.30;10.20;;;;;;;7.11;96.09;93950.75;5075228;28;20514;-85
2021/12/11 07:10:43;;;;;;;15.43;12.67;;;;;;;7.17;95.24;93939.78;5074352;28;20433;-84
2021/12/11 07:13:13;;;;;;;14.93;12.93;;;;;;;7.21;95.58;93946.38;5074586;28;20808;-82
2021/12/11 07:15:40;;;;;;;15.37;11.80;;;;;;;7.26;95.08;93938.19;5074564;28;20448;-82
2021/12/11 07:18:08;;;;;;;16.40;12.10;;;;;;;7.29;95.01;93930.09;5073951;28;20491;-83
2021/12/11 07:20:35;;;;;;;15.50;11.43;;;;;;;7.28;94.50;93931.88;5073558;28;20838;-84
2021/12/11 07:23:03;;;;;;;13.00;10.83;;;;;;;7.28;94.32;93931.88;5073394;28;20452;-83
2021/12/11 07:25:37;;;;;;;26.43;17.67;;;;;;;7.24;94.23;93930.50;5072847;28;20449;-83
2021/12/11 07:28:05;;;;;;;52.57;33.53;;;;;;;7.23;94.84;93931.44;5072872;28;20456;-83
2021/12/11 07:30:34;;;;;;;66.87;36.17;;;;;;;7.22;95.15;93929.78;5072687;28;20437;-84
2021/12/11 07:33:04;;;;;;;113.83;56.00;;;;;;;7.30;95.75;93932.56;5072738;28;20463;-84
2021/12/11 07:35:32;;;;;;;82.03;47.07;;;;;;;7.33;95.53;93927.06;5037784;28;20461;-84
2021/12/11 07:38:00;;;;;;;35.00;21.60;;;;;;;7.39;95.45;93926.53;5073173;28;20449;-81
2021/12/11 07:40:30;;;;;;;25.77;15.50;;;;;;;7.46;94.72;93925.03;5072171;28;20514;-82
2021/12/11 07:42:57;;;;;;;17.73;14.07;;;;;;;7.50;93.90;93922.97;5072503;28;20445;-82
2021/12/11 07:45:25;;;;;;;15.40;12.23;;;;;;;7.58;93.82;93932.75;5072152;28;20481;-82
2021/12/11 07:47:54;;;;;;;14.83;12.20;;;;;;;7.63;93.64;93930.53;5072885;28;20446;-83
2021/12/11 07:50:23;;;;;;;14.00;10.33;;;;;;;7.69;93.14;93930.00;5071886;28;20445;-82
2021/12/11 07:52:50;;;;;;;14.40;10.40;;;;;;;7.77;92.79;93928.34;5073175;28;20452;-80
2021/12/11 07:55:17;;;;;;;24.40;12.87;;;;;;;7.83;92.82;93918.34;5073052;28;20919;-82
2021/12/11 07:57:45;;;;;;;14.77;13.27;;;;;;;7.90;92.08;93933.31;5073709;28;20449;-80
2021/12/11 08:00:16;;;;;;;19.13;15.47;;;;;;;7.91;91.98;93924.50;5073284;28;20486;-83
2021/12/11 08:02:43;;;;;;;20.83;16.00;;;;;;;7.97;92.11;93917.91;5006704;28;20442;-83
2021/12/11 08:05:12;;;;;;;20.27;17.23;;;;;;;8.00;92.29;93922.84;5073378;28;20908;-84
2021/12/11 08:07:40;;;;;;;26.20;19.00;;;;;;;8.06;91.88;93927.53;5073648;28;20429;-82
2021/12/11 08:10:10;;;;;;;20.50;16.00;;;;;;;8.10;91.46;93920.25;5074163;28;20544;-83
2021/12/11 08:26:05;;;;;;;19.20;15.63;;;;;;;8.51;90.30;93914.69;5072341;28;20426;-82
2021/12/11 08:28:32;;;;;;;18.47;15.00;;;;;;;8.53;90.27;93912.75;5073464;28;20436;-83
2021/12/11 08:31:00;;;;;;;21.30;13.30;;;;;;;8.52;89.84;93913.72;5073747;28;20442;-82
2021/12/11 08:33:27;;;;;;;24.47;13.97;;;;;;;8.53;89.76;93925.00;5073284;28;21193;-82
2021/12/11 08:35:56;;;;;;;16.10;12.90;;;;;;;8.56;89.83;93922.94;5073418;28;20446;-82
2021/12/11 08:38:23;;;;;;;19.83;14.17;;;;;;;8.59;89.88;93930.50;5073239;28;20553;-82
2021/12/11 08:40:53;;;;;;;18.97;12.83;;;;;;;8.67;89.45;93928.00;5073197;28;20435;-76
2021/12/11 08:43:24;;;;;;;14.43;11.63;;;;;;;8.75;89.08;93918.63;5073005;28;20451;-82
2021/12/11 08:46:03;;;;;;;15.03;9.50;;;;;;;8.82;89.00;93923.13;5073287;28;20580;-85
2021/12/11 08:48:31;;;;;;;8.23;7.10;;;;;;;8.83;86.92;93927.41;5073324;28;20441;-82
2021/12/11 08:51:04;;;;;;;10.90;9.17;;;;;;;8.86;85.36;93915.81;5073442;28;20442;-83
2021/12/11 08:53:31;;;;;;;13.40;10.97;;;;;;;8.93;85.15;93914.28;5072831;28;20446;-82
2021/12/11 08:55:59;;;;;;;13.37;11.47;;;;;;;8.98;84.64;93899.00;5073119;28;20447;-81
2021/12/11 08:58:29;;;;;;;16.60;13.17;;;;;;;9.02;85.96;93900.34;5072716;28;20449;-82
2021/12/11 09:00:59;;;;;;;14.20;12.30;;;;;;;9.09;84.90;93892.72;5072521;28;20976;-82
2021/12/11 09:03:30;;;;;;;25.53;14.40;;;;;;;9.15;83.69;93894.75;5037822;28;20456;-79
2021/12/11 09:06:19;;;;;;;18.27;13.37;;;;;;;9.20;83.48;93888.09;5072744;28;20871;-79
2021/12/11 09:08:53;;;;;;;23.53;16.00;;;;;;;9.26;83.64;93886.72;5076624;28;20448;-79
2021/12/11 09:11:26;;;;;;;32.60;23.40;;;;;;;9.30;82.82;93883.66;5076896;28;20789;-80
2021/12/11 09:14:02;;;;;;;69.57;42.47;;;;;;;9.19;81.89;93869.94;5076590;28;20878;-80
2021/12/11 09:16:32;;;;;;;47.50;28.47;;;;;;;9.12;82.09;93874.13;5076453;28;20446;-80
2021/12/11 09:19:05;;;;;;;26.40;18.23;;;;;;;9.09;82.28;93864.75;5076289;28;20482;-84
2021/12/11 09:21:38;;;;;;;25.03;16.57;;;;;;;9.00;83.18;93856.00;5076680;28;20448;-80
2021/12/11 09:24:10;;;;;;;32.77;21.30;;;;;;;8.92;84.57;93861.13;5076610;28;20440;-81
2021/12/11 09:26:41;;;;;;;22.10;16.03;;;;;;;9.84;100.00;93839.97;5076310;28;20439;-81
2021/12/11 09:29:15;;;;;;;33.23;19.17;;;;;;;12.20;90.54;93859.34;5076673;28;20432;-84
2021/12/11 09:31:56;;;;;;;39.23;21.47;;;;;;;13.94;71.85;93855.75;5058221;28;20454;-84
2021/12/11 09:34:27;;;;;;;36.83;19.00;;;;;;;15.03;64.29;93844.69;5075140;28;21031;-84
2021/12/11 09:36:58;;;;;;;35.20;18.73;;;;;;;15.39;61.80;93847.41;5076106;28;20520;-84
2021/12/11 09:39:29;;;;;;;30.37;15.67;;;;;;;16.08;60.39;93849.59;5076071;28;20840;-82
2021/12/11 09:41:55;;;;;;;24.20;14.00;;;;;;;16.50;57.73;93840.84;5076491;28;20448;-83
2021/12/11 09:44:29;;;;;;;16.40;13.00;;;;;;;16.70;56.55;93831.22;5075571;28;21018;-83
2021/12/11 09:47:00;;;;;;;19.17;14.97;;;;;;;16.82;54.60;93825.41;5076504;28;20547;-79
2021/12/11 09:49:33;;;;;;;21.33;16.63;;;;;;;16.52;54.01;93835.34;5076262;28;20452;-80
2021/12/11 09:52:15;;;;;;;35.10;23.70;;;;;;;15.92;55.39;93823.41;5040758;28;20440;-81
2021/12/11 09:54:43;;;;;;;29.97;22.03;;;;;;;15.25;56.76;93823.63;5076438;28;20513;-77
2021/12/11 09:57:14;;;;;;;34.77;24.17;;;;;;;14.59;58.14;93813.00;5076269;28;20428;-79
2021/12/11 09:59:44;;;;;;;27.03;20.00;;;;;;;14.04;60.58;93815.94;5075866;28;20467;-82
2021/12/11 10:02:15;;;;;;;38.83;23.43;;;;;;;13.31;62.02;93812.00;5075958;28;20440;-80
2021/12/11 10:04:47;;;;;;;29.57;22.30;;;;;;;12.78;64.61;93797.72;5075580;28;20929;-80
2021/12/11 10:07:30;;;;;;;33.97;19.53;;;;;;;12.22;65.97;93796.88;5075520;28;20435;-80
2021/12/11 10:10:05;;;;;;;30.17;20.13;;;;;;;11.85;67.97;93791.28;5075675;28;20923;-79
2021/12/11 10:12:35;;;;;;;34.03;21.20;;;;;;;11.43;71.22;93787.78;5075342;28;20939;-79
2021/12/11 10:15:10;;;;;;;38.53;20.80;;;;;;;11.32;72.29;93795.19;5075220;28;20965;-79
2021/12/11 10:17:43;;;;;;;21.00;16.00;;;;;;;11.17;73.01;93803.66;5075734;28;20444;-80
2021/12/11 10:20:14;;;;;;;37.87;25.53;;;;;;;10.93;72.77;93806.22;5075117;28;20470;-79
2021/12/11 10:22:42;;;;;;;46.27;31.30;;;;;;;10.88;73.77;93808.50;5075517;28;20455;-78
2021/12/11 10:25:14;;;;;;;43.27;30.43;;;;;;;10.84;74.16;93796.66;5056703;28;20498;-79
2021/12/11 10:27:41;;;;;;;30.37;23.57;;;;;;;10.82;74.69;93794.22;5075258;28;20440;-79
2021/12/11 10:30:12;;;;;;;33.50;23.60;;;;;;;10.67;75.17;93798.41;5075279;28;20437;-79
2021/12/11 10:32:40;;;;;;;34.73;23.10;;;;;;;10.45;75.09;93799.78;5072120;28;20444;-80
2021/12/11 10:35:11;;;;;;;34.37;24.03;;;;;;;10.48;74.47;93791.59;5075345;28;20530;-80
2021/12/11 10:37:39;;;;;;;35.30;21.63;;;;;;;10.45;74.92;93789.31;5040762;28;20456;-79
2021/12/11 10:40:11;;;;;;;36.10;23.93;;;;;;;10.45;76.53;93793.72;5075376;28;20480;-79
2021/12/11 10:42:38;;;;;;;33.20;23.77;;;;;;;10.43;77.61;93791.25;5075445;28;20433;-79
2021/12/11 10:45:08;;;;;;;33.27;23.93;;;;;;;10.40;77.82;93781.06;5075005;28;20490;-80
2021/12/11 10:47:41;;;;;;;29.30;20.80;;;;;;;10.37;78.21;93773.50;5075515;28;21041;-79
2021/12/11 10:50:12;;;;;;;29.93;20.07;;;;;;;10.36;77.34;93765.78;5075044;28;20463;-80
2021/12/11 10:52:39;;;;;;;27.47;21.37;;;;;;;10.36;77.09;93763.16;5075653;28;20444;-79
2021/12/11 10:55:11;;;;;;;28.80;21.53;;;;;;;10.34;77.72;93762.50;5074893;28;20474;-79
2021/12/11 10:57:38;;;;;;;58.90;32.97;;;;;;;10.37;78.26;93759.56;5074178;28;20453;-79
2021/12/11 11:00:10;;;;;;;50.17;29.93;;;;;;;10.37;77.65;93757.75;5074332;28;20475;-80
2021/12/11 11:02:39;;;;;;;42.73;29.90;;;;;;;10.37;77.12;93757.75;5074561;28;20439;-80
2021/12/11 11:05:09;;;;;;;33.23;24.73;;;;;;;10.35;76.36;93754.47;5074469;28;20447;-80
2021/12/11 11:07:37;;;;;;;28.80;21.53;;;;;;;10.33;77.29;93748.56;5074715;28;20448;-80
2021/12/11 11:10:09;;;;;;;22.83;15.60;;;;;;;10.30;76.99;93751.50;5073526;28;20443;-79
2021/12/11 11:12:37;;;;;;;20.37;13.20;;;;;;;10.26;75.76;93750.19;5074854;28;20522;-79
2021/12/11 11:15:04;;;;;;;17.83;14.90;;;;;;;10.28;76.09;93750.03;5074495;28;20447;-80
2021/12/11 11:17:34;;;;;;;21.30;15.90;;;;;;;10.29;74.86;93743.81;5074346;28;20449;-79
2021/12/11 11:20:07;;;;;;;33.33;20.27;;;;;;;10.22;75.93;93746.25;5074460;28;20978;-80
2021/12/11 11:22:37;;;;;;;38.23;25.00;;;;;;;10.08;76.66;93747.59;5074560;28;20417;-80
2021/12/11 11:25:11;;;;;;;23.90;18.20;;;;;;;10.14;76.80;93733.06;5074411;28;20447;-80
2021/12/11 11:27:39;;;;;;;70.90;41.73;;;;;;;10.15;76.09;93726.84;5074212;28;20461;-81
2021/12/11 11:36:51;;;;;;;21.20;16.67;;;;;;;10.04;79.78;93716.59;5073005;28;20934;-83
2021/12/11 11:39:21;;;;;;;21.50;14.60;;;;;;;10.06;80.57;93709.41;5073859;28;20490;-83
2021/12/11 11:41:51;;;;;;;35.17;23.20;;;;;;;10.05;79.24;93705.16;5073938;28;20439;-83
2021/12/11 11:44:21;;;;;;;53.37;29.97;;;;;;;10.32;86.94;93691.88;5073485;28;20486;-83
2021/12/11 11:46:49;;;;;;;29.03;18.10;;;;;;;11.26;85.55;93686.31;5073900;28;20448;-82
2021/12/11 11:49:18;;;;;;;31.23;18.60;;;;;;;11.48;77.76;93690.09;5074039;28;20440;-83
2021/12/11 11:51:49;;;;;;;34.43;22.87;;;;;;;11.46;76.04;93707.84;5073804;28;20435;-88
2021/12/11 11:54:20;;;;;;;26.13;19.87;;;;;;;11.39;76.11;93701.63;5073312;28;20453;-79
2021/12/11 11:56:50;;;;;;;25.80;19.67;;;;;;;11.28;77.55;93694.88;5073789;28;20433;-78
2021/12/11 11:59:18;;;;;;;25.97;17.87;;;;;;;11.20;77.77;93691.41;5073905;28;20464;-82
2021/12/11 12:01:49;;;;;;;29.50;17.93;;;;;;;11.11;78.16;93696.66;5073456;28;20486;-81
2021/12/11 12:04:19;;;;;;;23.40;18.30;;;;;;;11.01;78.46;93698.63;5073282;28;20440;-81
2021/12/11 12:06:53;;;;;;;30.67;19.03;;;;;;;10.92;77.80;93698.75;5073741;28;20428;-81
2021/12/11 12:09:24;;;;;;;28.77;19.90;;;;;;;10.85;79.43;93691.53;5073651;28;20444;-83